Cold Spring, NJ

11:10 PM EST on December 07, 2016 (GMT -0500)
APRSWXNET | | Change Station

Elev 19 ft 38.96 °N, 74.93 °W | Updated 28 minutes ago

Clear
Clear
33 °F
Feels Like 33 °F
N
0
Wind Variable Wind from NW
Gusts 0.0 mph

Today
High -- | Low -- °F
--% Chance of Precip.
Yesterday
High -- | Low -- °F
Precip. -- in
Pressure 30.09 in
Visibility 6.0 miles
Clouds Clear
Windchill 33 °F
Dew Point 30 °F
Humidity 90%
Rainfall in
Snow Depth Not available.
7:05 AM 4:37 PM
First Quarter, 59% visible
METAR KWWD 080356Z AUTO 00000KT 6SM BR CLR 01/01 A3008 RMK AO2 SLP187 T00110006 FZRANO $
Pressure 30.09 in
Visibility 6.0 miles
Clouds Clear
Windchill 33 °F
Dew Point 30 °F
Humidity 90%
Rainfall in
Snow Depth Not available.
7:05 AM 4:37 PM
First Quarter, 59% visible
METAR KWWD 080356Z AUTO 00000KT 6SM BR CLR 01/01 A3008 RMK AO2 SLP187 T00110006 FZRANO $

10-Day Weather Forecast

Almanac

Astronomy

Dec. 07, 2016 Rise Set
Actual Time
Civil Twilight
Nautical Twilight
Astronomical Twilight
Moon
Length of Visible Light
Length of Day
Tomorrow will be .
, % of the Moon is Illuminated

Today's Extremes

State Highs State Lows

Community

WunderPhotos

Upload Photos

1,956,259 photos uploaded!

WunderBlog® & News

Nearby

Air Quality

  Air Quality AQ Index Pollutant
Not available.

Snow Depth

Station Depth Elevation

Earthquake Activity

City Distance Mag. Time & Date
Minimum magnitude displayed is 2.5.

Coastal Water Temperatures

Place Temperature

Stations

Nearby Weather Stations

Station Location Temp. Windchill Dew Point Humidity Wind Precip. Elev Updated Type
                   

Watches & Warnings

There are currently no watches in effect.